createdAt,value
2023-07-25T00:04:52.725Z,51.79
2023-07-25T00:09:55.993Z,51.65
2023-07-25T00:14:58.988Z,51.76
2023-07-25T00:20:03.357Z,51.51
2023-07-25T00:25:07.076Z,51.63
2023-07-25T00:30:10.823Z,51.87
2023-07-25T00:35:17.091Z,51.70
2023-07-25T00:40:20.184Z,51.56
2023-07-25T00:45:23.469Z,51.74
2023-07-25T00:50:27.697Z,51.72
2023-07-25T00:55:30.570Z,51.67
2023-07-25T01:00:34.022Z,51.68
2023-07-25T01:05:41.262Z,51.79
2023-07-25T01:10:44.299Z,51.80
2023-07-25T01:15:47.231Z,51.73
2023-07-25T01:20:51.530Z,51.91
2023-07-25T01:25:55.735Z,51.86
2023-07-25T01:30:58.863Z,51.96
2023-07-25T01:36:01.872Z,51.78
2023-07-25T01:41:06.311Z,51.85
2023-07-25T01:46:09.383Z,51.83
2023-07-25T01:51:14.553Z,51.93
2023-07-25T01:56:18.742Z,51.97
2023-07-25T02:01:21.862Z,52.11
2023-07-25T02:06:24.898Z,51.92
2023-07-25T02:11:29.526Z,52.04
2023-07-25T02:16:35.033Z,52.12
2023-07-25T02:21:37.908Z,52.15
2023-07-25T02:29:48.876Z,52.16
2023-07-25T02:34:51.688Z,52.31
2023-07-25T02:39:54.606Z,52.22
2023-07-25T02:44:58.893Z,52.10
2023-07-25T02:50:01.808Z,52.12
2023-07-25T02:55:06.504Z,52.09
2023-07-25T03:00:11.847Z,51.94
2023-07-25T03:05:16.297Z,52.13
2023-07-25T03:10:19.189Z,52.13
2023-07-25T03:15:23.542Z,51.97
2023-07-25T03:20:26.409Z,52.07
2023-07-25T03:25:29.221Z,51.84
2023-07-25T03:30:33.444Z,51.77
2023-07-25T03:35:36.265Z,52.35
2023-07-25T03:40:39.175Z,60.19
2023-07-25T03:45:43.488Z,62.84
2023-07-25T03:50:46.703Z,63.48
2023-07-25T03:55:49.680Z,63.14
2023-07-25T04:00:53.933Z,63.16
2023-07-25T04:05:56.855Z,59.88
2023-07-25T04:10:59.663Z,58.73
2023-07-25T04:16:04.082Z,57.53
2023-07-25T04:21:06.904Z,57.70
2023-07-25T04:26:09.760Z,57.55
2023-07-25T04:31:13.920Z,58.44
2023-07-25T04:36:16.839Z,58.39
2023-07-25T04:41:19.706Z,59.42
2023-07-25T04:46:24.130Z,59.42
2023-07-25T04:51:27.062Z,59.65
2023-07-25T04:56:29.947Z,60.38
2023-07-25T05:01:35.362Z,60.34
2023-07-25T05:06:38.537Z,60.25
2023-07-25T05:11:41.691Z,62.25
2023-07-25T05:16:46.040Z,62.90
2023-07-25T05:21:49.168Z,62.73
2023-07-25T05:26:52.011Z,62.15
2023-07-25T05:31:56.354Z,60.89
2023-07-25T05:36:59.773Z,61.34
2023-07-25T05:42:02.732Z,60.92
2023-07-25T05:47:09.710Z,60.78
2023-07-25T05:52:14.103Z,61.33
2023-07-25T05:57:17.411Z,61.48
2023-07-25T06:02:22.645Z,62.11
2023-07-25T06:07:26.634Z,59.61
2023-07-25T06:12:31.330Z,59.54
2023-07-25T06:17:36.366Z,58.68
2023-07-25T06:22:44.717Z,58.05
2023-07-25T06:27:52.675Z,57.13
2023-07-25T06:32:58.018Z,56.84
2023-07-25T06:38:03.035Z,56.91
2023-07-25T06:43:07.366Z,56.97
2023-07-25T06:48:14.403Z,56.97
2023-07-25T06:53:22.001Z,57.06
2023-07-25T06:58:32.784Z,55.93
2023-07-25T07:03:40.818Z,55.80
2023-07-25T07:08:45.189Z,55.13
2023-07-25T07:13:50.089Z,55.43
2023-07-25T07:18:54.656Z,57.04
2023-07-25T07:23:57.728Z,56.54
2023-07-25T07:29:00.827Z,57.56
2023-07-25T07:34:16.156Z,56.47
2023-07-25T07:39:19.261Z,56.11
2023-07-25T07:44:25.074Z,56.69
2023-07-25T07:49:29.860Z,55.13
2023-07-25T07:54:34.291Z,55.79
2023-07-25T07:59:38.482Z,57.05
2023-07-25T08:04:42.982Z,55.49
2023-07-25T08:09:45.954Z,54.63
2023-07-25T08:14:48.898Z,53.41
2023-07-25T08:19:53.333Z,52.72
2023-07-25T08:24:56.294Z,53.38
2023-07-25T08:29:59.419Z,52.77
2023-07-25T08:35:04.070Z,52.68
2023-07-25T08:40:09.865Z,52.01
2023-07-25T08:45:13.650Z,53.46
2023-07-25T08:50:18.307Z,51.20
2023-07-25T08:55:27.366Z,52.75
2023-07-25T09:00:39.636Z,52.11
2023-07-25T09:05:46.857Z,50.95
2023-07-25T09:10:50.674Z,50.53
2023-07-25T09:15:54.328Z,51.42
2023-07-25T09:21:02.097Z,50.58
2023-07-25T09:26:08.134Z,50.56
2023-07-25T09:31:11.426Z,51.16
2023-07-25T09:36:17.175Z,50.97
2023-07-25T09:41:20.689Z,51.20
2023-07-25T09:46:28.373Z,51.29
2023-07-25T09:51:35.541Z,50.28
2023-07-25T09:56:40.035Z,51.57
2023-07-25T10:01:43.418Z,52.92
2023-07-25T10:06:51.739Z,53.65
2023-07-25T10:11:56.589Z,55.02
2023-07-25T10:17:00.042Z,54.73
2023-07-25T10:22:04.508Z,54.87
2023-07-25T10:27:10.127Z,53.83
2023-07-25T10:32:18.088Z,52.33
2023-07-25T10:37:23.475Z,51.95
2023-07-25T10:42:43.283Z,52.95
2023-07-25T10:47:55.813Z,52.45
2023-07-25T10:53:00.313Z,50.84
2023-07-25T10:58:10.089Z,51.91
2023-07-25T11:03:28.930Z,50.97
2023-07-25T11:08:33.384Z,50.75
2023-07-25T11:13:37.318Z,52.70
2023-07-25T11:18:51.402Z,52.40
2023-07-25T11:24:04.724Z,54.79
2023-07-25T11:29:09.869Z,53.98
2023-07-25T11:34:13.288Z,55.91
2023-07-25T11:39:17.604Z,54.73
2023-07-25T11:44:21.137Z,55.66
2023-07-25T11:49:40.245Z,56.19
2023-07-25T11:54:48.578Z,55.61
2023-07-25T11:59:54.832Z,53.51
2023-07-25T12:04:58.134Z,54.80
2023-07-25T12:10:02.334Z,54.64
2023-07-25T12:15:08.077Z,55.92
2023-07-25T12:20:17.965Z,55.90
2023-07-25T12:25:23.103Z,56.79
2023-07-25T12:30:27.012Z,57.92
2023-07-25T12:35:30.218Z,63.29
2023-07-25T12:40:35.027Z,57.11
2023-07-25T12:45:38.430Z,63.17
2023-07-25T12:50:42.166Z,63.36
2023-07-25T12:55:46.715Z,63.91
2023-07-25T13:00:49.839Z,62.68
2023-07-25T13:05:53.007Z,61.82
2023-07-25T13:10:57.454Z,63.46
2023-07-25T13:16:00.685Z,62.62
2023-07-25T13:21:03.769Z,62.92
2023-07-25T13:26:08.368Z,61.72
2023-07-25T13:31:11.256Z,60.05
2023-07-25T13:36:14.506Z,61.27
2023-07-25T13:41:19.018Z,61.94
2023-07-25T13:46:22.022Z,60.64
2023-07-25T13:51:25.183Z,61.67
2023-07-25T13:56:29.423Z,62.93
2023-07-25T14:01:32.717Z,62.42
2023-07-25T14:06:36.421Z,62.20
2023-07-25T14:11:40.905Z,60.15
2023-07-25T14:16:43.872Z,60.07
2023-07-25T14:21:47.524Z,57.61
2023-07-25T14:26:51.856Z,60.54
2023-07-25T14:31:54.734Z,60.85
2023-07-25T14:36:57.688Z,59.99
2023-07-25T14:42:02.020Z,63.76
2023-07-25T14:47:05.932Z,61.62
2023-07-25T14:52:14.453Z,61.58
2023-07-25T14:57:24.336Z,62.51
2023-07-25T15:02:27.310Z,61.73
2023-07-25T15:07:30.296Z,63.80
2023-07-25T15:12:34.614Z,57.84
2023-07-25T15:17:38.193Z,59.89
2023-07-25T15:22:41.244Z,59.24
2023-07-25T15:27:45.557Z,62.61
2023-07-25T15:32:48.639Z,55.86
2023-07-25T15:37:51.615Z,53.91
2023-07-25T15:42:55.895Z,53.27
2023-07-25T15:47:58.884Z,53.02
2023-07-25T15:53:02.134Z,52.72
2023-07-25T15:58:06.486Z,52.24
2023-07-25T16:03:09.648Z,52.54
2023-07-25T16:08:12.660Z,52.53
2023-07-25T16:13:17.142Z,52.34
2023-07-25T16:18:20.504Z,52.48
2023-07-25T16:23:23.695Z,52.51
2023-07-25T16:28:28.246Z,52.37
2023-07-25T16:33:31.156Z,52.46
2023-07-25T16:38:35.345Z,52.24
2023-07-25T16:43:39.570Z,52.15
2023-07-25T16:48:42.705Z,51.81
2023-07-25T16:53:46.125Z,51.88
2023-07-25T16:58:50.573Z,51.75
2023-07-25T17:03:53.724Z,52.03
2023-07-25T17:08:57.669Z,51.82
2023-07-25T17:14:02.005Z,51.88
2023-07-25T17:19:05.001Z,51.62
2023-07-25T17:24:08.544Z,51.37
2023-07-25T17:29:13.506Z,51.67
2023-07-25T17:34:16.554Z,51.80
2023-07-25T17:39:19.646Z,51.80
2023-07-25T17:44:23.922Z,51.65
2023-07-25T17:49:26.988Z,51.78
2023-07-25T17:54:29.882Z,51.93
2023-07-25T17:59:34.585Z,51.97
2023-07-25T18:04:38.361Z,51.68
2023-07-25T18:09:41.464Z,51.51
2023-07-25T18:14:45.939Z,51.47
2023-07-25T18:19:48.961Z,51.38
2023-07-25T18:24:51.964Z,51.47
2023-07-25T18:29:56.292Z,51.48
2023-07-25T18:34:59.288Z,51.23
2023-07-25T18:40:02.431Z,51.19
2023-07-25T18:45:11.485Z,51.10
2023-07-25T18:50:16.210Z,51.05
2023-07-25T18:55:19.762Z,50.90
2023-07-25T19:00:23.934Z,51.09
2023-07-25T19:05:26.833Z,50.87
2023-07-25T19:10:30.164Z,50.66
2023-07-25T19:15:35.038Z,50.88
2023-07-25T19:20:38.048Z,50.68
2023-07-25T19:25:40.849Z,50.56
2023-07-25T19:30:45.851Z,50.51
2023-07-25T19:35:53.113Z,50.22
2023-07-25T19:40:56.383Z,50.25
2023-07-25T19:46:05.606Z,50.35
2023-07-25T19:51:11.901Z,50.32
2023-07-25T19:56:14.746Z,50.34
2023-07-25T20:01:19.545Z,50.10
2023-07-25T20:06:23.943Z,50.17
2023-07-25T20:11:26.930Z,50.27
2023-07-25T20:16:31.586Z,50.25
2023-07-25T20:21:34.974Z,50.29
2023-07-25T20:26:40.772Z,50.03
2023-07-25T20:31:45.828Z,49.93
2023-07-25T20:36:48.749Z,49.85
2023-07-25T20:41:52.097Z,49.90
2023-07-25T20:46:56.377Z,49.92
2023-07-25T20:51:59.411Z,49.67
2023-07-25T20:57:02.345Z,49.58
2023-07-25T21:02:07.348Z,49.51
2023-07-25T21:07:10.643Z,49.67
2023-07-25T21:12:14.031Z,49.73
2023-07-25T21:17:18.501Z,49.63
2023-07-25T21:22:21.390Z,49.50
2023-07-25T21:27:24.346Z,49.62
2023-07-25T21:32:28.670Z,49.64
2023-07-25T21:37:31.590Z,49.51
2023-07-25T21:42:34.440Z,49.26
2023-07-25T21:47:38.915Z,49.36
2023-07-25T21:52:41.958Z,49.05
2023-07-25T21:57:45.142Z,49.01
2023-07-25T22:02:49.757Z,48.96
2023-07-25T22:07:52.781Z,48.58
2023-07-25T22:12:55.659Z,48.73
2023-07-25T22:17:59.995Z,48.56
2023-07-25T22:23:02.952Z,48.51
2023-07-25T22:28:06.998Z,48.67
2023-07-25T22:33:11.284Z,48.81
2023-07-25T22:38:14.218Z,48.75
2023-07-25T22:43:17.256Z,48.83
2023-07-25T22:48:21.542Z,48.93
2023-07-25T22:53:24.342Z,49.22
2023-07-25T22:58:27.251Z,49.31
2023-07-25T23:03:31.629Z,49.27
2023-07-25T23:08:34.618Z,49.18
2023-07-25T23:13:37.428Z,49.41
2023-07-25T23:18:41.648Z,49.42
2023-07-25T23:23:44.743Z,49.43
2023-07-25T23:28:47.579Z,49.62
2023-07-25T23:33:51.906Z,49.57
2023-07-25T23:38:54.732Z,49.62
2023-07-25T23:43:57.606Z,49.66
2023-07-25T23:49:01.785Z,49.82
2023-07-25T23:54:05.068Z,49.72
2023-07-25T23:59:07.891Z,49.60
